Putnam Station, New York
Current Conditions -  °F | °C
As of 11:35 AM on Tuesday 27 Jan 2015 (Local Time) from K6B0 Reporting Station
Light Snow Light Snow  
Wind Chill: -23°   Ceiling: 1000
Heat Index: -14°   Visibility: 0.75mi
Dew Point: -16°   Wind: 14mph
Humidity: 81%   Direction: 350°N
Pressure: 29.85"   Gusts: 20mph
Location:  43.74°N, 73.4°W
Report Text: K6B0 271635Z AUTO 35012G17KT 3/4SM -SN BKN010 OVC014 M14/M16 A2985 RMK AO2 LTG DSNT E T11361162
Loading
Personal Weather Stations






























Interactive Weather Map New forecast layout! Learn more

10-Day Weather Forecast

Advertisements
Track Severe Weather on mobile